createdAt,value
2022-10-10T00:02:38.033Z,54.32
2022-10-10T00:05:40.587Z,54.42
2022-10-10T00:08:42.385Z,54.39
2022-10-10T00:11:43.892Z,54.30
2022-10-10T00:14:45.446Z,54.36
2022-10-10T00:17:46.984Z,54.40
2022-10-10T00:20:51.777Z,54.56
2022-10-10T00:23:53.308Z,54.34
2022-10-10T00:26:54.891Z,54.44
2022-10-10T00:29:56.607Z,54.38
2022-10-10T00:32:59.574Z,54.39
2022-10-10T00:36:01.129Z,54.62
2022-10-10T00:39:02.675Z,54.57
2022-10-10T00:42:04.417Z,54.63
2022-10-10T00:45:29.015Z,54.66
2022-10-10T00:48:40.192Z,54.70
2022-10-10T00:51:43.765Z,54.80
2022-10-10T00:54:45.305Z,54.78
2022-10-10T00:57:47.376Z,54.77
2022-10-10T01:00:49.083Z,54.82
2022-10-10T01:03:50.753Z,54.81
2022-10-10T01:06:52.345Z,54.78
2022-10-10T01:09:56.369Z,54.77
2022-10-10T01:13:22.405Z,54.88
2022-10-10T01:16:36.502Z,54.85
2022-10-10T01:19:44.380Z,54.90
2022-10-10T01:23:22.905Z,54.81
2022-10-10T01:26:44.609Z,54.89
2022-10-10T01:29:59.977Z,55.05
2022-10-10T01:33:17.327Z,54.91
2022-10-10T01:36:32.690Z,55.05
2022-10-10T01:39:58.429Z,54.95
2022-10-10T01:43:04.148Z,55.05
2022-10-10T01:46:17.293Z,54.87
2022-10-10T01:49:19.319Z,55.07
2022-10-10T01:52:47.512Z,54.92
2022-10-10T01:56:09.887Z,55.04
2022-10-10T01:59:25.025Z,55.02
2022-10-10T02:02:39.555Z,55.04
2022-10-10T02:05:52.889Z,55.06
2022-10-10T02:09:00.176Z,54.94
2022-10-10T02:12:02.575Z,55.15
2022-10-10T02:15:12.956Z,55.09
2022-10-10T02:18:18.832Z,55.07
2022-10-10T02:21:21.673Z,55.08
2022-10-10T02:24:24.792Z,55.15
2022-10-10T02:27:26.697Z,55.06
2022-10-10T02:30:28.600Z,55.16
2022-10-10T02:33:47.605Z,55.03
2022-10-10T02:36:54.430Z,55.01
2022-10-10T02:40:01.088Z,55.04
2022-10-10T02:43:06.121Z,55.19
2022-10-10T02:46:11.784Z,55.26
2022-10-10T02:49:13.307Z,55.17
2022-10-10T02:52:16.322Z,55.23
2022-10-10T02:55:17.962Z,55.27
2022-10-10T02:58:19.607Z,55.30
2022-10-10T03:01:21.180Z,55.34
2022-10-10T03:04:23.004Z,55.23
2022-10-10T03:07:25.446Z,55.27
2022-10-10T03:10:26.995Z,55.32
2022-10-10T03:13:28.729Z,55.29
2022-10-10T03:16:30.368Z,55.30
2022-10-10T03:19:31.968Z,55.39
2022-10-10T03:22:33.571Z,55.35
2022-10-10T03:25:35.088Z,55.42
2022-10-10T03:28:38.204Z,55.48
2022-10-10T03:31:39.897Z,55.43
2022-10-10T03:34:41.452Z,55.42
2022-10-10T03:37:42.957Z,55.41
2022-10-10T03:40:45.388Z,55.49
2022-10-10T03:43:46.992Z,55.51
2022-10-10T03:46:48.525Z,55.25
2022-10-10T03:49:50.040Z,55.54
2022-10-10T03:52:51.875Z,55.49
2022-10-10T03:55:55.604Z,55.50
2022-10-10T03:59:00.637Z,55.66
2022-10-10T04:02:02.169Z,55.70
2022-10-10T04:05:04.829Z,55.58
2022-10-10T04:08:06.995Z,55.58
2022-10-10T04:11:08.721Z,55.64
2022-10-10T04:14:10.657Z,55.59
2022-10-10T04:17:12.249Z,55.68
2022-10-10T04:20:13.845Z,55.58
2022-10-10T04:23:15.582Z,55.65
2022-10-10T04:26:17.226Z,55.74
2022-10-10T04:29:18.725Z,55.70
2022-10-10T04:32:20.296Z,55.59
2022-10-10T04:35:22.075Z,55.75
2022-10-10T04:38:23.676Z,55.74
2022-10-10T04:41:25.653Z,55.76
2022-10-10T04:44:27.320Z,55.79
2022-10-10T04:47:29.096Z,56.16
2022-10-10T04:50:30.706Z,55.85
2022-10-10T04:53:32.384Z,55.78
2022-10-10T04:56:33.966Z,55.93
2022-10-10T04:59:35.509Z,55.92
2022-10-10T05:02:37.072Z,55.79
2022-10-10T05:05:39.588Z,55.99
2022-10-10T05:08:41.080Z,55.84
2022-10-10T05:11:42.616Z,55.93
2022-10-10T05:14:47.930Z,55.92
2022-10-10T05:17:49.771Z,55.86
2022-10-10T05:20:51.269Z,56.02
2022-10-10T05:23:52.798Z,55.98
2022-10-10T05:26:54.339Z,55.88
2022-10-10T05:29:56.227Z,55.96
2022-10-10T05:32:57.933Z,55.98
2022-10-10T05:36:11.896Z,55.86
2022-10-10T05:39:13.520Z,55.87
2022-10-10T05:42:16.000Z,55.86
2022-10-10T05:45:17.853Z,55.83
2022-10-10T05:48:19.709Z,56.00
2022-10-10T05:51:21.405Z,56.00
2022-10-10T05:54:23.549Z,55.93
2022-10-10T05:57:25.053Z,55.85
2022-10-10T06:00:26.898Z,55.93
2022-10-10T06:03:28.485Z,55.97
2022-10-10T06:06:30.260Z,55.75
2022-10-10T06:09:31.828Z,56.02
2022-10-10T06:12:33.353Z,55.94
2022-10-10T06:15:34.879Z,55.90
2022-10-10T06:18:36.481Z,55.96
2022-10-10T06:21:38.078Z,56.05
2022-10-10T06:24:39.580Z,55.93
2022-10-10T06:27:41.097Z,55.93
2022-10-10T06:30:44.188Z,55.75
2022-10-10T06:33:46.606Z,55.85
2022-10-10T06:36:50.741Z,55.95
2022-10-10T06:39:52.288Z,55.76
2022-10-10T06:42:54.558Z,55.85
2022-10-10T06:45:56.483Z,55.68
2022-10-10T06:48:58.036Z,55.63
2022-10-10T06:51:59.602Z,55.69
2022-10-10T06:55:01.097Z,55.82
2022-10-10T06:58:02.955Z,55.63
2022-10-10T07:01:04.744Z,55.70
2022-10-10T07:04:06.472Z,55.70
2022-10-10T07:07:08.013Z,55.67
2022-10-10T07:10:13.146Z,55.67
2022-10-10T07:13:15.503Z,55.63
2022-10-10T07:16:17.056Z,55.71
2022-10-10T07:19:19.152Z,55.60
2022-10-10T07:22:20.699Z,55.62
2022-10-10T07:25:22.220Z,55.64
2022-10-10T07:28:23.791Z,55.50
2022-10-10T07:31:25.341Z,55.56
2022-10-10T07:34:27.163Z,55.60
2022-10-10T07:37:28.761Z,55.56
2022-10-10T07:40:30.356Z,55.45
2022-10-10T07:43:31.983Z,55.60
2022-10-10T07:46:33.581Z,55.53
2022-10-10T07:49:35.162Z,55.74
2022-10-10T07:52:36.668Z,55.59
2022-10-10T07:55:42.884Z,55.44
2022-10-10T07:58:44.440Z,55.52
2022-10-10T08:01:46.012Z,55.56
2022-10-10T08:04:47.568Z,55.66
2022-10-10T08:07:49.328Z,55.36
2022-10-10T08:10:51.221Z,55.56
2022-10-10T08:13:52.815Z,55.61
2022-10-10T08:16:54.991Z,55.58
2022-10-10T08:19:56.601Z,55.45
2022-10-10T08:22:59.001Z,55.37
2022-10-10T08:26:02.432Z,55.64
2022-10-10T08:29:04.344Z,55.83
2022-10-10T08:32:05.871Z,55.44
2022-10-10T08:35:07.860Z,55.65
2022-10-10T08:38:09.418Z,55.42
2022-10-10T08:41:20.513Z,55.55
2022-10-10T08:44:43.703Z,55.45
2022-10-10T08:47:51.789Z,55.33
2022-10-10T08:51:02.494Z,55.54
2022-10-10T08:54:06.937Z,55.45
2022-10-10T08:57:22.623Z,55.36
2022-10-10T09:00:33.384Z,55.44
2022-10-10T09:03:42.436Z,55.39
2022-10-10T09:06:46.813Z,55.41
2022-10-10T09:10:03.503Z,55.30
2022-10-10T09:13:25.721Z,55.18
2022-10-10T09:16:45.689Z,55.10
2022-10-10T09:20:11.817Z,55.16
2022-10-10T09:23:19.309Z,55.18
2022-10-10T09:26:28.436Z,55.15
2022-10-10T09:29:43.927Z,55.04
2022-10-10T09:32:47.993Z,55.08
2022-10-10T09:35:52.081Z,55.32
2022-10-10T09:39:01.773Z,55.12
2022-10-10T09:42:09.874Z,55.13
2022-10-10T09:45:21.047Z,54.92
2022-10-10T09:48:29.460Z,55.07
2022-10-10T09:51:32.828Z,54.75
2022-10-10T09:54:34.388Z,54.64
2022-10-10T09:57:39.344Z,54.75
2022-10-10T10:00:40.977Z,54.61
2022-10-10T10:03:44.014Z,54.77
2022-10-10T10:06:51.955Z,54.80
2022-10-10T10:09:59.379Z,54.77
2022-10-10T10:13:01.282Z,54.46
2022-10-10T10:16:05.676Z,54.34
2022-10-10T10:19:34.828Z,54.43
2022-10-10T10:22:40.009Z,54.55
2022-10-10T10:25:41.604Z,54.28
2022-10-10T10:28:44.257Z,54.54
2022-10-10T10:31:48.932Z,54.44
2022-10-10T10:34:50.405Z,54.38
2022-10-10T10:38:16.130Z,54.12
2022-10-10T10:41:17.639Z,54.29
2022-10-10T10:44:28.031Z,54.21
2022-10-10T10:47:55.487Z,54.28
2022-10-10T10:51:11.293Z,53.98
2022-10-10T10:54:21.928Z,53.95
2022-10-10T10:57:36.875Z,53.64
2022-10-10T11:01:28.375Z,53.74
2022-10-10T11:05:20.702Z,53.90
2022-10-10T11:08:24.026Z,53.43
2022-10-10T11:11:59.713Z,53.85
2022-10-10T11:15:14.871Z,53.86
2022-10-10T11:18:31.043Z,53.63
2022-10-10T11:21:38.124Z,53.48
2022-10-10T11:25:08.985Z,53.72
2022-10-10T11:28:34.229Z,53.40
2022-10-10T11:31:57.808Z,53.38
2022-10-10T11:35:10.277Z,53.36
2022-10-10T11:38:11.853Z,53.29
2022-10-10T11:41:27.129Z,53.34
2022-10-10T11:44:36.710Z,53.19
2022-10-10T11:47:43.664Z,53.06
2022-10-10T11:50:49.762Z,53.02
2022-10-10T11:53:56.504Z,52.89
2022-10-10T11:57:03.447Z,53.04
2022-10-10T12:00:13.705Z,52.92
2022-10-10T12:03:15.408Z,52.79
2022-10-10T12:06:26.320Z,52.73
2022-10-10T12:09:38.592Z,52.75
2022-10-10T12:12:46.633Z,52.87
2022-10-10T12:15:51.283Z,52.75
2022-10-10T12:18:54.952Z,52.82
2022-10-10T12:22:05.639Z,52.65
2022-10-10T12:25:36.543Z,52.76
2022-10-10T12:29:01.829Z,52.48
2022-10-10T12:32:15.455Z,52.46
2022-10-10T12:35:32.082Z,52.53
2022-10-10T12:38:33.681Z,52.49
2022-10-10T12:41:56.300Z,52.54
2022-10-10T12:44:58.319Z,52.41
2022-10-10T12:48:19.835Z,52.30
2022-10-10T12:51:24.154Z,52.39
2022-10-10T12:54:30.415Z,52.19
2022-10-10T12:57:36.941Z,52.11
2022-10-10T13:00:44.724Z,52.24
2022-10-10T13:03:48.699Z,52.22
2022-10-10T13:06:54.487Z,52.03
2022-10-10T13:10:07.648Z,52.11
2022-10-10T13:13:20.729Z,51.89
2022-10-10T13:16:32.844Z,52.06
2022-10-10T13:19:42.060Z,51.99
2022-10-10T13:22:47.160Z,52.17
2022-10-10T13:25:49.059Z,52.05
2022-10-10T13:28:51.739Z,51.93
2022-10-10T13:31:55.438Z,51.94
2022-10-10T13:35:01.068Z,52.03
2022-10-10T13:38:02.803Z,52.07
2022-10-10T13:41:05.378Z,51.98
2022-10-10T13:44:14.268Z,51.85
2022-10-10T13:47:46.611Z,51.90
2022-10-10T13:51:10.824Z,51.84
2022-10-10T13:54:43.102Z,51.80
2022-10-10T13:57:44.844Z,52.03
2022-10-10T14:00:55.121Z,52.07
2022-10-10T14:04:06.907Z,51.82
2022-10-10T14:07:18.292Z,51.89
2022-10-10T14:10:27.645Z,51.89
2022-10-10T14:13:32.093Z,52.04
2022-10-10T14:16:33.840Z,51.99
2022-10-10T14:19:35.380Z,52.01
2022-10-10T14:22:36.960Z,51.91
2022-10-10T14:25:40.449Z,51.98
2022-10-10T14:28:42.643Z,51.93
2022-10-10T14:31:44.697Z,51.83
2022-10-10T14:34:46.876Z,52.06
2022-10-10T14:37:48.433Z,51.92
2022-10-10T14:40:51.332Z,51.96
2022-10-10T14:43:52.885Z,51.95
2022-10-10T14:46:54.397Z,52.22
2022-10-10T14:49:57.970Z,52.01
2022-10-10T14:52:59.591Z,51.98
2022-10-10T14:56:01.162Z,52.07
2022-10-10T14:59:02.845Z,52.09
2022-10-10T15:02:04.391Z,52.25
2022-10-10T15:05:06.124Z,52.33
2022-10-10T15:08:08.350Z,52.19
2022-10-10T15:11:15.891Z,52.50
2022-10-10T15:14:17.467Z,52.51
2022-10-10T15:17:19.100Z,52.67
2022-10-10T15:20:24.096Z,52.61
2022-10-10T15:23:27.033Z,52.64
2022-10-10T15:26:28.539Z,52.79
2022-10-10T15:29:30.075Z,52.73
2022-10-10T15:32:31.600Z,52.89
2022-10-10T15:35:50.600Z,52.87
2022-10-10T15:38:55.496Z,53.20
2022-10-10T15:41:57.789Z,52.96
2022-10-10T15:44:59.340Z,53.05
2022-10-10T15:48:00.903Z,52.69
2022-10-10T15:51:07.175Z,52.91
2022-10-10T15:54:08.843Z,52.96
2022-10-10T15:57:11.205Z,52.97
2022-10-10T16:00:15.582Z,53.17
2022-10-10T16:03:17.512Z,53.35
2022-10-10T16:06:21.703Z,53.26
2022-10-10T16:09:28.511Z,53.24
2022-10-10T16:12:30.656Z,53.42
2022-10-10T16:15:32.490Z,53.35
2022-10-10T16:18:40.169Z,53.65
2022-10-10T16:21:42.576Z,53.27
2022-10-10T16:24:58.205Z,53.72
2022-10-10T16:28:05.721Z,53.92
2022-10-10T16:31:09.622Z,53.96
2022-10-10T16:34:11.239Z,53.64
2022-10-10T16:37:12.869Z,53.80
2022-10-10T16:40:14.404Z,53.94
2022-10-10T16:43:17.256Z,53.95
2022-10-10T16:46:21.041Z,53.91
2022-10-10T16:49:23.418Z,53.82
2022-10-10T16:52:24.981Z,54.01
2022-10-10T16:55:26.507Z,53.73
2022-10-10T16:58:29.609Z,53.71
2022-10-10T17:01:31.614Z,53.78
2022-10-10T17:04:33.328Z,54.11
2022-10-10T17:07:36.170Z,54.08
2022-10-10T17:10:37.830Z,53.80
2022-10-10T17:13:39.388Z,53.99
2022-10-10T17:20:02.866Z,53.91
2022-10-10T17:23:04.398Z,54.09
2022-10-10T17:26:08.489Z,54.02
2022-10-10T17:29:10.204Z,53.88
2022-10-10T17:32:11.941Z,53.98
2022-10-10T17:35:13.515Z,53.99
2022-10-10T17:38:38.599Z,54.02
2022-10-10T17:41:37.992Z,53.86
2022-10-10T17:44:45.325Z,53.81
2022-10-10T17:47:50.569Z,53.84
2022-10-10T17:50:52.117Z,54.06
2022-10-10T17:53:53.739Z,54.01
2022-10-10T17:56:55.294Z,53.95
2022-10-10T17:59:56.837Z,54.00
2022-10-10T18:02:59.336Z,53.89
2022-10-10T18:06:12.671Z,53.80
2022-10-10T18:09:14.283Z,54.09
2022-10-10T18:12:15.832Z,54.16
2022-10-10T18:15:17.434Z,54.07
2022-10-10T18:18:19.169Z,53.95
2022-10-10T18:21:22.673Z,54.04
2022-10-10T18:24:24.242Z,54.05
2022-10-10T18:27:26.865Z,54.08
2022-10-10T18:30:29.903Z,54.22
2022-10-10T18:33:31.421Z,54.06
2022-10-10T18:36:36.387Z,54.17
2022-10-10T18:39:38.041Z,54.12
2022-10-10T18:42:40.325Z,54.33
2022-10-10T18:45:41.840Z,54.34
2022-10-10T18:48:44.684Z,54.18
2022-10-10T18:51:46.350Z,54.21
2022-10-10T18:54:51.928Z,54.24
2022-10-10T18:57:53.476Z,54.12
2022-10-10T19:01:03.162Z,54.14
2022-10-10T19:04:06.783Z,54.27
2022-10-10T19:07:08.378Z,54.21
2022-10-10T19:10:09.923Z,54.34
2022-10-10T19:13:11.860Z,54.24
2022-10-10T19:16:13.781Z,54.33
2022-10-10T19:19:18.200Z,54.23
2022-10-10T19:22:19.683Z,54.20
2022-10-10T19:25:21.255Z,54.27
2022-10-10T19:28:22.970Z,54.29
2022-10-10T19:31:26.739Z,54.38
2022-10-10T19:34:28.267Z,54.40
2022-10-10T19:37:29.811Z,54.37
2022-10-10T19:40:31.487Z,54.22
2022-10-10T19:43:33.432Z,54.35
2022-10-10T19:46:37.534Z,54.33
2022-10-10T19:49:39.682Z,54.38
2022-10-10T19:52:41.275Z,54.27
2022-10-10T19:55:44.092Z,54.30
2022-10-10T19:58:45.634Z,54.38
2022-10-10T20:01:47.274Z,54.35
2022-10-10T20:04:48.896Z,54.37
2022-10-10T20:07:51.165Z,54.38
2022-10-10T20:10:53.938Z,54.31
2022-10-10T20:13:55.995Z,54.34
2022-10-10T20:16:57.722Z,54.35
2022-10-10T20:19:59.303Z,54.39
2022-10-10T20:23:01.861Z,54.33
2022-10-10T20:26:09.132Z,54.23
2022-10-10T20:29:10.975Z,54.22
2022-10-10T20:32:12.527Z,54.16
2022-10-10T20:35:14.582Z,54.11
2022-10-10T20:38:16.200Z,54.40
2022-10-10T20:41:17.746Z,54.30
2022-10-10T20:44:19.342Z,54.38
2022-10-10T20:47:20.898Z,54.32
2022-10-10T20:50:22.641Z,54.34
2022-10-10T20:53:24.168Z,54.26
2022-10-10T20:56:28.080Z,54.44
2022-10-10T20:59:29.732Z,54.35
2022-10-10T21:02:31.309Z,54.43
2022-10-10T21:05:32.856Z,54.29
2022-10-10T21:08:34.711Z,54.35
2022-10-10T21:11:36.728Z,54.42
2022-10-10T21:14:38.405Z,54.41
2022-10-10T21:17:40.067Z,54.43
2022-10-10T21:20:41.589Z,54.42
2022-10-10T21:23:46.096Z,54.51
2022-10-10T21:26:49.185Z,54.30
2022-10-10T21:29:50.866Z,54.36
2022-10-10T21:32:52.380Z,54.41
2022-10-10T21:35:54.928Z,54.49
2022-10-10T21:38:57.553Z,54.47
2022-10-10T21:41:59.138Z,54.45
2022-10-10T21:45:00.656Z,54.55
2022-10-10T21:48:03.237Z,54.37
2022-10-10T21:51:05.241Z,54.34
2022-10-10T21:54:07.822Z,54.45
2022-10-10T21:57:09.917Z,54.32
2022-10-10T22:00:11.927Z,54.34
2022-10-10T22:03:13.564Z,54.34
2022-10-10T22:06:17.946Z,54.58
2022-10-10T22:09:19.499Z,54.23
2022-10-10T22:12:21.037Z,54.49
2022-10-10T22:15:22.605Z,54.45
2022-10-10T22:18:25.053Z,54.44
2022-10-10T22:21:30.843Z,54.36
2022-10-10T22:24:32.445Z,54.43
2022-10-10T22:27:34.047Z,54.53
2022-10-10T22:30:35.615Z,54.65
2022-10-10T22:33:37.615Z,54.40
2022-10-10T22:36:39.221Z,54.48
2022-10-10T22:39:40.753Z,54.70
2022-10-10T22:42:42.288Z,54.98
2022-10-10T22:45:44.673Z,54.65
2022-10-10T22:48:46.305Z,54.82
2022-10-10T22:51:47.902Z,54.89
2022-10-10T22:54:49.451Z,55.02
2022-10-10T22:57:50.999Z,55.02
2022-10-10T23:00:52.961Z,55.20
2022-10-10T23:04:00.583Z,55.03
2022-10-10T23:07:02.365Z,55.01
2022-10-10T23:10:04.541Z,55.24
2022-10-10T23:13:06.250Z,55.17
2022-10-10T23:16:08.664Z,55.22
2022-10-10T23:19:10.641Z,55.14
2022-10-10T23:22:12.908Z,55.08
2022-10-10T23:25:14.480Z,55.27
2022-10-10T23:28:16.791Z,55.36
2022-10-10T23:31:19.033Z,55.24
2022-10-10T23:34:20.644Z,55.26
2022-10-10T23:37:23.511Z,55.48
2022-10-10T23:40:26.120Z,55.43
2022-10-10T23:43:27.722Z,55.44
2022-10-10T23:46:29.229Z,55.46
2022-10-10T23:49:30.968Z,55.47
2022-10-10T23:52:32.529Z,55.48
2022-10-10T23:55:34.892Z,55.48
2022-10-10T23:58:36.667Z,55.33
